sensor_id;sensor_type;location;lat;lon;timestamp;temperature;humidity
5972;DHT22;3012;49.944;8.454;2023-07-20T00:02:08;21.80;62.70
5972;DHT22;3012;49.944;8.454;2023-07-20T00:04:38;21.90;62.90
5972;DHT22;3012;49.944;8.454;2023-07-20T00:07:08;21.80;63.00
5972;DHT22;3012;49.944;8.454;2023-07-20T00:09:38;21.70;62.70
5972;DHT22;3012;49.944;8.454;2023-07-20T00:12:10;21.90;63.10
5972;DHT22;3012;49.944;8.454;2023-07-20T00:14:40;21.70;63.30
5972;DHT22;3012;49.944;8.454;2023-07-20T00:17:10;21.60;63.40
5972;DHT22;3012;49.944;8.454;2023-07-20T00:19:41;21.50;63.40
5972;DHT22;3012;49.944;8.454;2023-07-20T00:22:11;21.50;63.50
5972;DHT22;3012;49.944;8.454;2023-07-20T00:24:41;21.50;63.70
5972;DHT22;3012;49.944;8.454;2023-07-20T00:27:13;21.60;64.10
5972;DHT22;3012;49.944;8.454;2023-07-20T00:29:43;21.40;64.20
5972;DHT22;3012;49.944;8.454;2023-07-20T00:32:13;21.50;64.50
5972;DHT22;3012;49.944;8.454;2023-07-20T00:34:44;21.30;64.20
5972;DHT22;3012;49.944;8.454;2023-07-20T00:37:14;21.40;64.60
5972;DHT22;3012;49.944;8.454;2023-07-20T00:39:44;21.30;65.00
5972;DHT22;3012;49.944;8.454;2023-07-20T00:42:17;21.30;64.60
5972;DHT22;3012;49.944;8.454;2023-07-20T00:44:47;21.30;64.80
5972;DHT22;3012;49.944;8.454;2023-07-20T00:47:18;21.20;64.70
5972;DHT22;3012;49.944;8.454;2023-07-20T00:49:49;21.20;65.00
5972;DHT22;3012;49.944;8.454;2023-07-20T00:52:22;21.20;64.90
5972;DHT22;3012;49.944;8.454;2023-07-20T00:54:53;21.10;65.00
5972;DHT22;3012;49.944;8.454;2023-07-20T00:57:26;21.10;65.30
5972;DHT22;3012;49.944;8.454;2023-07-20T00:59:57;21.10;65.60
5972;DHT22;3012;49.944;8.454;2023-07-20T01:02:27;20.70;65.50
5972;DHT22;3012;49.944;8.454;2023-07-20T01:04:57;21.20;66.10
5972;DHT22;3012;49.944;8.454;2023-07-20T01:07:32;20.90;65.90
5972;DHT22;3012;49.944;8.454;2023-07-20T01:10:11;20.90;66.10
5972;DHT22;3012;49.944;8.454;2023-07-20T01:12:46;21.00;66.70
5972;DHT22;3012;49.944;8.454;2023-07-20T01:15:16;21.10;66.60
5972;DHT22;3012;49.944;8.454;2023-07-20T01:17:46;20.80;66.40
5972;DHT22;3012;49.944;8.454;2023-07-20T01:20:18;20.80;66.60
5972;DHT22;3012;49.944;8.454;2023-07-20T01:23:01;20.80;66.60
5972;DHT22;3012;49.944;8.454;2023-07-20T01:25:51;20.80;67.10
5972;DHT22;3012;49.944;8.454;2023-07-20T01:28:47;20.50;66.50
5972;DHT22;3012;49.944;8.454;2023-07-20T01:31:21;20.70;67.10
5972;DHT22;3012;49.944;8.454;2023-07-20T01:33:55;20.70;67.30
5972;DHT22;3012;49.944;8.454;2023-07-20T01:36:28;20.80;67.30
5972;DHT22;3012;49.944;8.454;2023-07-20T01:38:59;20.70;67.30
5972;DHT22;3012;49.944;8.454;2023-07-20T01:41:31;20.60;67.30
5972;DHT22;3012;49.944;8.454;2023-07-20T01:44:03;20.60;67.40
5972;DHT22;3012;49.944;8.454;2023-07-20T01:46:35;20.60;67.70
5972;DHT22;3012;49.944;8.454;2023-07-20T01:49:05;20.40;67.90
5972;DHT22;3012;49.944;8.454;2023-07-20T01:51:35;20.50;68.10
5972;DHT22;3012;49.944;8.454;2023-07-20T01:54:06;20.80;68.30
5972;DHT22;3012;49.944;8.454;2023-07-20T01:56:36;20.50;67.90
5972;DHT22;3012;49.944;8.454;2023-07-20T01:59:06;20.40;67.80
5972;DHT22;3012;49.944;8.454;2023-07-20T02:01:38;20.00;67.70
5972;DHT22;3012;49.944;8.454;2023-07-20T02:04:09;20.10;67.80
5972;DHT22;3012;49.944;8.454;2023-07-20T02:06:39;20.30;68.20
5972;DHT22;3012;49.944;8.454;2023-07-20T02:09:09;20.20;68.30
5972;DHT22;3012;49.944;8.454;2023-07-20T02:11:40;20.30;68.50
5972;DHT22;3012;49.944;8.454;2023-07-20T02:14:10;20.20;68.40
5972;DHT22;3012;49.944;8.454;2023-07-20T02:16:42;20.30;68.70
5972;DHT22;3012;49.944;8.454;2023-07-20T02:19:14;20.10;68.80
5972;DHT22;3012;49.944;8.454;2023-07-20T02:21:44;20.30;68.90
5972;DHT22;3012;49.944;8.454;2023-07-20T02:24:14;20.10;68.90
5972;DHT22;3012;49.944;8.454;2023-07-20T02:26:45;19.70;68.40
5972;DHT22;3012;49.944;8.454;2023-07-20T02:29:15;20.10;69.10
5972;DHT22;3012;49.944;8.454;2023-07-20T02:31:47;20.10;69.20
5972;DHT22;3012;49.944;8.454;2023-07-20T02:34:17;20.20;69.50
5972;DHT22;3012;49.944;8.454;2023-07-20T02:36:48;20.00;69.10
5972;DHT22;3012;49.944;8.454;2023-07-20T02:39:18;20.20;69.50
5972;DHT22;3012;49.944;8.454;2023-07-20T02:41:49;20.00;69.30
5972;DHT22;3012;49.944;8.454;2023-07-20T02:44:19;20.00;69.70
5972;DHT22;3012;49.944;8.454;2023-07-20T02:46:50;20.00;69.50
5972;DHT22;3012;49.944;8.454;2023-07-20T02:49:21;19.90;69.30
5972;DHT22;3012;49.944;8.454;2023-07-20T02:51:51;19.90;69.30
5972;DHT22;3012;49.944;8.454;2023-07-20T02:54:22;19.50;69.10
5972;DHT22;3012;49.944;8.454;2023-07-20T02:56:53;19.90;69.80
5972;DHT22;3012;49.944;8.454;2023-07-20T02:59:23;19.90;69.60
5972;DHT22;3012;49.944;8.454;2023-07-20T03:01:55;19.80;69.70
5972;DHT22;3012;49.944;8.454;2023-07-20T03:04:26;19.80;69.60
5972;DHT22;3012;49.944;8.454;2023-07-20T03:06:57;19.80;69.80
5972;DHT22;3012;49.944;8.454;2023-07-20T03:09:28;19.80;70.00
5972;DHT22;3012;49.944;8.454;2023-07-20T03:11:58;19.70;70.00
5972;DHT22;3012;49.944;8.454;2023-07-20T03:14:28;19.70;70.10
5972;DHT22;3012;49.944;8.454;2023-07-20T03:17:00;19.70;70.40
5972;DHT22;3012;49.944;8.454;2023-07-20T03:19:31;19.70;70.60
5972;DHT22;3012;49.944;8.454;2023-07-20T03:22:01;19.50;70.70
5972;DHT22;3012;49.944;8.454;2023-07-20T03:24:31;19.60;71.70
5972;DHT22;3012;49.944;8.454;2023-07-20T03:27:01;19.30;71.80
5972;DHT22;3012;49.944;8.454;2023-07-20T03:29:32;19.30;72.10
5972;DHT22;3012;49.944;8.454;2023-07-20T03:32:04;19.50;73.00
5972;DHT22;3012;49.944;8.454;2023-07-20T03:34:34;19.20;73.30
5972;DHT22;3012;49.944;8.454;2023-07-20T03:37:05;19.50;73.80
5972;DHT22;3012;49.944;8.454;2023-07-20T03:39:35;19.10;74.10
5972;DHT22;3012;49.944;8.454;2023-07-20T03:42:06;19.00;73.90
5972;DHT22;3012;49.944;8.454;2023-07-20T03:44:36;19.00;74.80
5972;DHT22;3012;49.944;8.454;2023-07-20T03:47:09;18.80;74.80
5972;DHT22;3012;49.944;8.454;2023-07-20T03:49:39;18.80;75.10
5972;DHT22;3012;49.944;8.454;2023-07-20T03:52:09;18.40;74.80
5972;DHT22;3012;49.944;8.454;2023-07-20T03:54:41;18.60;74.80
5972;DHT22;3012;49.944;8.454;2023-07-20T03:57:13;18.90;75.50
5972;DHT22;3012;49.944;8.454;2023-07-20T03:59:46;18.90;75.50
5972;DHT22;3012;49.944;8.454;2023-07-20T04:02:19;18.90;76.10
5972;DHT22;3012;49.944;8.454;2023-07-20T04:04:49;18.30;75.40
5972;DHT22;3012;49.944;8.454;2023-07-20T04:07:20;18.70;76.30
5972;DHT22;3012;49.944;8.454;2023-07-20T04:09:54;18.80;76.90
5972;DHT22;3012;49.944;8.454;2023-07-20T04:12:25;18.80;76.70
5972;DHT22;3012;49.944;8.454;2023-07-20T04:14:57;18.70;76.80
5972;DHT22;3012;49.944;8.454;2023-07-20T04:17:33;18.70;77.00
5972;DHT22;3012;49.944;8.454;2023-07-20T04:20:04;18.70;77.40
5972;DHT22;3012;49.944;8.454;2023-07-20T04:22:35;18.70;78.40
5972;DHT22;3012;49.944;8.454;2023-07-20T04:25:05;18.60;77.70
5972;DHT22;3012;49.944;8.454;2023-07-20T04:27:36;18.60;78.20
5972;DHT22;3012;49.944;8.454;2023-07-20T04:30:10;18.80;78.60
5972;DHT22;3012;49.944;8.454;2023-07-20T04:32:58;18.60;79.80
5972;DHT22;3012;49.944;8.454;2023-07-20T04:35:49;18.00;78.30
5972;DHT22;3012;49.944;8.454;2023-07-20T04:38:19;18.80;79.50
5972;DHT22;3012;49.944;8.454;2023-07-20T04:40:50;18.50;79.10
5972;DHT22;3012;49.944;8.454;2023-07-20T04:43:21;18.50;79.60
5972;DHT22;3012;49.944;8.454;2023-07-20T04:45:51;18.60;79.80
5972;DHT22;3012;49.944;8.454;2023-07-20T04:48:23;18.40;80.10
5972;DHT22;3012;49.944;8.454;2023-07-20T04:50:53;18.70;80.40
5972;DHT22;3012;49.944;8.454;2023-07-20T04:53:23;18.60;80.20
5972;DHT22;3012;49.944;8.454;2023-07-20T04:55:53;18.10;80.10
5972;DHT22;3012;49.944;8.454;2023-07-20T04:58:24;18.60;80.30
5972;DHT22;3012;49.944;8.454;2023-07-20T05:00:54;18.60;80.50
5972;DHT22;3012;49.944;8.454;2023-07-20T05:03:26;18.70;80.80
5972;DHT22;3012;49.944;8.454;2023-07-20T05:05:57;18.60;80.70
5972;DHT22;3012;49.944;8.454;2023-07-20T05:08:27;18.70;81.00
5972;DHT22;3012;49.944;8.454;2023-07-20T05:11:06;18.60;80.90
5972;DHT22;3012;49.944;8.454;2023-07-20T05:13:40;18.80;81.50
5972;DHT22;3012;49.944;8.454;2023-07-20T05:16:11;18.60;81.10
5972;DHT22;3012;49.944;8.454;2023-07-20T05:18:45;18.70;81.00
5972;DHT22;3012;49.944;8.454;2023-07-20T05:21:20;18.90;81.60
5972;DHT22;3012;49.944;8.454;2023-07-20T05:23:58;18.70;81.30
5972;DHT22;3012;49.944;8.454;2023-07-20T05:26:33;18.30;81.00
5972;DHT22;3012;49.944;8.454;2023-07-20T05:29:04;18.80;81.70
5972;DHT22;3012;49.944;8.454;2023-07-20T05:31:35;18.70;81.80
5972;DHT22;3012;49.944;8.454;2023-07-20T05:34:07;18.90;81.70
5972;DHT22;3012;49.944;8.454;2023-07-20T05:36:38;18.50;81.30
5972;DHT22;3012;49.944;8.454;2023-07-20T05:39:09;18.80;82.70
5972;DHT22;3012;49.944;8.454;2023-07-20T05:41:39;18.90;82.30
5972;DHT22;3012;49.944;8.454;2023-07-20T05:44:09;18.90;82.80
5972;DHT22;3012;49.944;8.454;2023-07-20T05:46:40;19.00;82.10
5972;DHT22;3012;49.944;8.454;2023-07-20T05:49:25;19.00;81.80
5972;DHT22;3012;49.944;8.454;2023-07-20T05:51:56;19.20;82.20
5972;DHT22;3012;49.944;8.454;2023-07-20T05:54:27;19.10;81.90
5972;DHT22;3012;49.944;8.454;2023-07-20T05:56:57;19.20;83.10
5972;DHT22;3012;49.944;8.454;2023-07-20T05:59:28;19.10;82.60
5972;DHT22;3012;49.944;8.454;2023-07-20T06:01:59;19.30;82.00
5972;DHT22;3012;49.944;8.454;2023-07-20T06:04:31;18.90;81.50
5972;DHT22;3012;49.944;8.454;2023-07-20T06:07:02;19.40;82.10
5972;DHT22;3012;49.944;8.454;2023-07-20T06:09:32;19.90;82.60
5972;DHT22;3012;49.944;8.454;2023-07-20T06:12:02;19.40;81.70
5972;DHT22;3012;49.944;8.454;2023-07-20T06:14:33;19.50;82.00
5972;DHT22;3012;49.944;8.454;2023-07-20T06:17:03;19.70;81.90
5972;DHT22;3012;49.944;8.454;2023-07-20T06:19:35;19.60;82.00
5972;DHT22;3012;49.944;8.454;2023-07-20T06:22:05;19.50;81.60
5972;DHT22;3012;49.944;8.454;2023-07-20T06:24:36;19.60;81.40
5972;DHT22;3012;49.944;8.454;2023-07-20T06:27:06;19.80;81.00
5972;DHT22;3012;49.944;8.454;2023-07-20T06:29:37;19.90;80.90
5972;DHT22;3012;49.944;8.454;2023-07-20T06:32:08;19.60;80.90
5972;DHT22;3012;49.944;8.454;2023-07-20T06:34:39;20.10;80.60
5972;DHT22;3012;49.944;8.454;2023-07-20T06:37:10;20.00;80.90
5972;DHT22;3012;49.944;8.454;2023-07-20T06:39:41;20.20;81.10
5972;DHT22;3012;49.944;8.454;2023-07-20T06:42:15;20.10;80.80
5972;DHT22;3012;49.944;8.454;2023-07-20T06:44:46;20.10;80.80
5972;DHT22;3012;49.944;8.454;2023-07-20T06:47:16;20.00;80.80
5972;DHT22;3012;49.944;8.454;2023-07-20T06:49:48;19.70;80.90
5972;DHT22;3012;49.944;8.454;2023-07-20T06:52:18;20.00;81.20
5972;DHT22;3012;49.944;8.454;2023-07-20T06:54:48;20.10;80.70
5972;DHT22;3012;49.944;8.454;2023-07-20T06:57:18;20.30;81.10
5972;DHT22;3012;49.944;8.454;2023-07-20T06:59:54;20.30;81.30
5972;DHT22;3012;49.944;8.454;2023-07-20T07:02:25;20.40;80.60
5972;DHT22;3012;49.944;8.454;2023-07-20T07:04:58;20.50;80.30
5972;DHT22;3012;49.944;8.454;2023-07-20T07:07:45;20.60;81.00
5972;DHT22;3012;49.944;8.454;2023-07-20T07:10:15;20.70;79.70
5972;DHT22;3012;49.944;8.454;2023-07-20T07:12:46;20.80;78.60
5972;DHT22;3012;49.944;8.454;2023-07-20T07:15:17;21.00;78.30
5972;DHT22;3012;49.944;8.454;2023-07-20T07:17:48;20.80;78.20
5972;DHT22;3012;49.944;8.454;2023-07-20T07:20:21;20.80;77.20
5972;DHT22;3012;49.944;8.454;2023-07-20T07:22:51;20.80;77.60
5972;DHT22;3012;49.944;8.454;2023-07-20T07:25:22;21.00;78.10
5972;DHT22;3012;49.944;8.454;2023-07-20T07:27:53;20.80;77.80
5972;DHT22;3012;49.944;8.454;2023-07-20T07:30:23;20.90;77.30
5972;DHT22;3012;49.944;8.454;2023-07-20T07:32:54;21.00;77.60
5972;DHT22;3012;49.944;8.454;2023-07-20T07:35:26;21.10;77.20
5972;DHT22;3012;49.944;8.454;2023-07-20T07:37:57;21.20;76.80
5972;DHT22;3012;49.944;8.454;2023-07-20T07:40:45;21.20;76.20
5972;DHT22;3012;49.944;8.454;2023-07-20T07:43:16;21.30;75.70
5972;DHT22;3012;49.944;8.454;2023-07-20T07:45:46;21.50;76.10
5972;DHT22;3012;49.944;8.454;2023-07-20T07:48:16;21.60;75.50
5972;DHT22;3012;49.944;8.454;2023-07-20T07:50:50;21.70;75.50
5972;DHT22;3012;49.944;8.454;2023-07-20T07:53:20;21.70;75.10
5972;DHT22;3012;49.944;8.454;2023-07-20T07:55:50;21.70;75.40
5972;DHT22;3012;49.944;8.454;2023-07-20T07:58:20;21.90;75.20
5972;DHT22;3012;49.944;8.454;2023-07-20T08:00:52;21.90;75.20
5972;DHT22;3012;49.944;8.454;2023-07-20T08:03:22;21.90;74.80
5972;DHT22;3012;49.944;8.454;2023-07-20T08:05:56;21.90;74.20
5972;DHT22;3012;49.944;8.454;2023-07-20T08:08:27;22.10;73.30
5972;DHT22;3012;49.944;8.454;2023-07-20T08:10:59;22.50;72.90
5972;DHT22;3012;49.944;8.454;2023-07-20T08:13:34;22.60;72.70
5972;DHT22;3012;49.944;8.454;2023-07-20T08:16:05;22.60;71.60
5972;DHT22;3012;49.944;8.454;2023-07-20T08:18:35;22.40;71.20
5972;DHT22;3012;49.944;8.454;2023-07-20T08:21:08;22.30;71.80
5972;DHT22;3012;49.944;8.454;2023-07-20T08:23:38;22.00;72.70
5972;DHT22;3012;49.944;8.454;2023-07-20T08:26:08;21.90;72.60
5972;DHT22;3012;49.944;8.454;2023-07-20T08:28:39;21.80;72.90
5972;DHT22;3012;49.944;8.454;2023-07-20T08:31:09;21.80;73.00
5972;DHT22;3012;49.944;8.454;2023-07-20T08:33:39;21.80;73.60
5972;DHT22;3012;49.944;8.454;2023-07-20T08:36:13;21.80;73.70
5972;DHT22;3012;49.944;8.454;2023-07-20T08:38:45;22.20;73.90
5972;DHT22;3012;49.944;8.454;2023-07-20T08:41:17;22.30;73.30
5972;DHT22;3012;49.944;8.454;2023-07-20T08:43:51;22.60;71.50
5972;DHT22;3012;49.944;8.454;2023-07-20T08:46:25;22.80;69.50
5972;DHT22;3012;49.944;8.454;2023-07-20T08:48:57;23.00;70.40
5972;DHT22;3012;49.944;8.454;2023-07-20T08:51:32;22.80;70.20
5972;DHT22;3012;49.944;8.454;2023-07-20T08:54:04;22.60;69.00
5972;DHT22;3012;49.944;8.454;2023-07-20T08:56:34;22.50;69.50
5972;DHT22;3012;49.944;8.454;2023-07-20T08:59:04;22.40;69.20
5972;DHT22;3012;49.944;8.454;2023-07-20T09:01:40;22.40;69.20
5972;DHT22;3012;49.944;8.454;2023-07-20T09:04:17;22.40;69.80
5972;DHT22;3012;49.944;8.454;2023-07-20T09:06:49;23.00;70.30
5972;DHT22;3012;49.944;8.454;2023-07-20T09:09:20;22.90;69.20
5972;DHT22;3012;49.944;8.454;2023-07-20T09:11:51;23.00;67.80
5972;DHT22;3012;49.944;8.454;2023-07-20T09:14:24;23.20;67.60
5972;DHT22;3012;49.944;8.454;2023-07-20T09:16:56;23.40;67.50
5972;DHT22;3012;49.944;8.454;2023-07-20T09:19:26;23.70;66.90
5972;DHT22;3012;49.944;8.454;2023-07-20T09:21:58;23.60;66.20
5972;DHT22;3012;49.944;8.454;2023-07-20T09:24:29;23.30;65.70
5972;DHT22;3012;49.944;8.454;2023-07-20T09:27:01;23.20;66.50
5972;DHT22;3012;49.944;8.454;2023-07-20T09:29:32;23.00;66.80
5972;DHT22;3012;49.944;8.454;2023-07-20T09:32:04;22.90;66.80
5972;DHT22;3012;49.944;8.454;2023-07-20T09:34:50;23.00;66.90
5972;DHT22;3012;49.944;8.454;2023-07-20T09:37:23;23.30;65.30
5972;DHT22;3012;49.944;8.454;2023-07-20T09:39:58;23.30;64.10
5972;DHT22;3012;49.944;8.454;2023-07-20T09:42:37;23.40;63.10
5972;DHT22;3012;49.944;8.454;2023-07-20T09:45:30;23.60;63.70
5972;DHT22;3012;49.944;8.454;2023-07-20T09:48:05;23.90;61.70
5972;DHT22;3012;49.944;8.454;2023-07-20T09:50:42;24.20;62.70
5972;DHT22;3012;49.944;8.454;2023-07-20T09:53:20;24.40;62.50
5972;DHT22;3012;49.944;8.454;2023-07-20T09:55:52;24.60;62.30
5972;DHT22;3012;49.944;8.454;2023-07-20T09:58:24;24.90;62.00
5972;DHT22;3012;49.944;8.454;2023-07-20T10:00:57;24.90;60.10
5972;DHT22;3012;49.944;8.454;2023-07-20T10:03:29;24.70;59.50
5972;DHT22;3012;49.944;8.454;2023-07-20T10:06:06;24.50;59.80
5972;DHT22;3012;49.944;8.454;2023-07-20T10:08:41;24.30;59.80
5972;DHT22;3012;49.944;8.454;2023-07-20T10:11:15;24.10;60.20
5972;DHT22;3012;49.944;8.454;2023-07-20T10:13:49;23.90;60.50
5972;DHT22;3012;49.944;8.454;2023-07-20T10:16:25;23.70;60.60
5972;DHT22;3012;49.944;8.454;2023-07-20T10:19:03;23.80;60.90
5972;DHT22;3012;49.944;8.454;2023-07-20T10:21:48;23.30;61.80
5972;DHT22;3012;49.944;8.454;2023-07-20T10:24:28;23.20;62.40
5972;DHT22;3012;49.944;8.454;2023-07-20T10:26:59;23.10;63.00
5972;DHT22;3012;49.944;8.454;2023-07-20T10:29:30;23.10;63.50
5972;DHT22;3012;49.944;8.454;2023-07-20T10:32:00;23.10;63.70
5972;DHT22;3012;49.944;8.454;2023-07-20T10:34:31;23.00;63.80
5972;DHT22;3012;49.944;8.454;2023-07-20T10:37:01;22.90;63.90
5972;DHT22;3012;49.944;8.454;2023-07-20T10:39:34;22.90;64.20
5972;DHT22;3012;49.944;8.454;2023-07-20T10:42:07;22.80;63.80
5972;DHT22;3012;49.944;8.454;2023-07-20T10:44:39;22.80;64.20
5972;DHT22;3012;49.944;8.454;2023-07-20T10:47:22;22.80;64.70
5972;DHT22;3012;49.944;8.454;2023-07-20T10:50:05;22.90;64.00
5972;DHT22;3012;49.944;8.454;2023-07-20T10:53:15;23.10;64.20
5972;DHT22;3012;49.944;8.454;2023-07-20T10:55:47;23.70;62.80
5972;DHT22;3012;49.944;8.454;2023-07-20T10:58:19;24.10;62.10
5972;DHT22;3012;49.944;8.454;2023-07-20T11:01:00;23.90;61.00
5972;DHT22;3012;49.944;8.454;2023-07-20T11:03:34;24.00;62.00
5972;DHT22;3012;49.944;8.454;2023-07-20T11:06:32;24.30;61.80
5972;DHT22;3012;49.944;8.454;2023-07-20T11:09:07;24.70;61.40
5972;DHT22;3012;49.944;8.454;2023-07-20T11:11:42;24.60;60.10
5972;DHT22;3012;49.944;8.454;2023-07-20T11:14:21;24.60;61.00
5972;DHT22;3012;49.944;8.454;2023-07-20T11:16:52;24.50;61.30
5972;DHT22;3012;49.944;8.454;2023-07-20T11:19:24;24.40;61.30
5972;DHT22;3012;49.944;8.454;2023-07-20T11:21:58;24.40;61.80
5972;DHT22;3012;49.944;8.454;2023-07-20T11:24:31;24.40;61.90
5972;DHT22;3012;49.944;8.454;2023-07-20T11:27:03;24.70;60.80
5972;DHT22;3012;49.944;8.454;2023-07-20T11:29:37;24.90;59.90
5972;DHT22;3012;49.944;8.454;2023-07-20T11:32:07;25.00;59.60
5972;DHT22;3012;49.944;8.454;2023-07-20T11:34:40;24.90;60.10
5972;DHT22;3012;49.944;8.454;2023-07-20T11:37:09;24.80;59.80
5972;DHT22;3012;49.944;8.454;2023-07-20T11:39:40;24.70;60.20
5972;DHT22;3012;49.944;8.454;2023-07-20T11:42:12;24.60;60.30
5972;DHT22;3012;49.944;8.454;2023-07-20T11:45:03;24.30;60.70
5972;DHT22;3012;49.944;8.454;2023-07-20T11:47:35;24.30;60.70
5972;DHT22;3012;49.944;8.454;2023-07-20T11:50:11;24.40;61.00
5972;DHT22;3012;49.944;8.454;2023-07-20T11:52:42;24.40;61.30
5972;DHT22;3012;49.944;8.454;2023-07-20T11:55:13;24.30;60.40
5972;DHT22;3012;49.944;8.454;2023-07-20T11:58:02;24.30;61.00
5972;DHT22;3012;49.944;8.454;2023-07-20T12:00:32;24.20;61.00
5972;DHT22;3012;49.944;8.454;2023-07-20T12:03:05;24.20;62.00
5972;DHT22;3012;49.944;8.454;2023-07-20T12:05:37;24.10;60.80
5972;DHT22;3012;49.944;8.454;2023-07-20T12:08:11;24.00;59.80
5972;DHT22;3012;49.944;8.454;2023-07-20T12:10:54;23.90;59.20
5972;DHT22;3012;49.944;8.454;2023-07-20T12:13:37;24.10;59.60
5972;DHT22;3012;49.944;8.454;2023-07-20T12:16:53;24.70;59.80
5972;DHT22;3012;49.944;8.454;2023-07-20T12:19:25;25.30;58.20
5972;DHT22;3012;49.944;8.454;2023-07-20T12:21:58;25.60;58.70
5972;DHT22;3012;49.944;8.454;2023-07-20T12:24:28;25.70;57.00
5972;DHT22;3012;49.944;8.454;2023-07-20T12:27:00;25.90;57.10
5972;DHT22;3012;49.944;8.454;2023-07-20T12:29:33;26.20;55.80
5972;DHT22;3012;49.944;8.454;2023-07-20T12:32:05;26.30;55.50
5972;DHT22;3012;49.944;8.454;2023-07-20T12:34:36;26.30;55.40
5972;DHT22;3012;49.944;8.454;2023-07-20T12:37:07;26.10;55.80
5972;DHT22;3012;49.944;8.454;2023-07-20T12:39:40;25.80;56.00
5972;DHT22;3012;49.944;8.454;2023-07-20T12:42:15;25.60;56.30
5972;DHT22;3012;49.944;8.454;2023-07-20T12:44:48;25.30;56.30
5972;DHT22;3012;49.944;8.454;2023-07-20T12:47:19;25.10;55.60
5972;DHT22;3012;49.944;8.454;2023-07-20T12:49:53;25.20;55.50
5972;DHT22;3012;49.944;8.454;2023-07-20T12:52:28;25.50;56.00
5972;DHT22;3012;49.944;8.454;2023-07-20T12:55:03;25.70;54.50
5972;DHT22;3012;49.944;8.454;2023-07-20T12:57:35;25.90;54.00
5972;DHT22;3012;49.944;8.454;2023-07-20T13:00:31;26.10;53.90
5972;DHT22;3012;49.944;8.454;2023-07-20T13:03:16;26.60;53.50
5972;DHT22;3012;49.944;8.454;2023-07-20T13:05:50;26.80;53.30
5972;DHT22;3012;49.944;8.454;2023-07-20T13:08:23;26.70;53.80
5972;DHT22;3012;49.944;8.454;2023-07-20T13:10:55;26.50;53.90
5972;DHT22;3012;49.944;8.454;2023-07-20T13:13:26;26.30;53.80
5972;DHT22;3012;49.944;8.454;2023-07-20T13:16:07;26.30;53.80
5972;DHT22;3012;49.944;8.454;2023-07-20T13:18:40;26.50;52.80
5972;DHT22;3012;49.944;8.454;2023-07-20T13:21:18;27.00;52.60
5972;DHT22;3012;49.944;8.454;2023-07-20T13:23:56;27.50;50.90
5972;DHT22;3012;49.944;8.454;2023-07-20T13:26:33;27.80;50.00
5972;DHT22;3012;49.944;8.454;2023-07-20T13:29:05;28.20;50.80
5972;DHT22;3012;49.944;8.454;2023-07-20T13:31:37;28.40;49.10
5972;DHT22;3012;49.944;8.454;2023-07-20T13:34:09;28.40;49.90
5972;DHT22;3012;49.944;8.454;2023-07-20T13:36:46;28.00;49.90
5972;DHT22;3012;49.944;8.454;2023-07-20T13:39:17;27.80;49.50
5972;DHT22;3012;49.944;8.454;2023-07-20T13:41:47;27.80;50.00
5972;DHT22;3012;49.944;8.454;2023-07-20T13:44:17;27.40;49.60
5972;DHT22;3012;49.944;8.454;2023-07-20T13:46:59;27.10;49.90
5972;DHT22;3012;49.944;8.454;2023-07-20T13:49:33;27.20;51.00
5972;DHT22;3012;49.944;8.454;2023-07-20T13:52:15;27.40;50.00
5972;DHT22;3012;49.944;8.454;2023-07-20T13:54:53;27.40;51.20
5972;DHT22;3012;49.944;8.454;2023-07-20T13:57:28;27.60;49.10
5972;DHT22;3012;49.944;8.454;2023-07-20T14:00:06;27.80;50.30
5972;DHT22;3012;49.944;8.454;2023-07-20T14:02:41;28.10;50.20
5972;DHT22;3012;49.944;8.454;2023-07-20T14:05:15;28.20;48.90
5972;DHT22;3012;49.944;8.454;2023-07-20T14:07:49;28.20;47.40
5972;DHT22;3012;49.944;8.454;2023-07-20T14:10:20;28.20;49.00
5972;DHT22;3012;49.944;8.454;2023-07-20T14:12:50;28.10;48.20
5972;DHT22;3012;49.944;8.454;2023-07-20T14:15:20;27.80;49.00
5972;DHT22;3012;49.944;8.454;2023-07-20T14:17:53;27.30;48.50
5972;DHT22;3012;49.944;8.454;2023-07-20T14:20:24;27.30;49.50
5972;DHT22;3012;49.944;8.454;2023-07-20T14:22:56;27.30;48.60
5972;DHT22;3012;49.944;8.454;2023-07-20T14:25:27;27.50;49.50
5972;DHT22;3012;49.944;8.454;2023-07-20T14:27:58;27.70;48.90
5972;DHT22;3012;49.944;8.454;2023-07-20T14:30:30;27.60;49.10
5972;DHT22;3012;49.944;8.454;2023-07-20T14:33:02;27.50;49.60
5972;DHT22;3012;49.944;8.454;2023-07-20T14:35:33;27.30;48.50
5972;DHT22;3012;49.944;8.454;2023-07-20T14:38:04;27.10;49.10
5972;DHT22;3012;49.944;8.454;2023-07-20T14:40:35;26.90;49.20
5972;DHT22;3012;49.944;8.454;2023-07-20T14:43:06;26.50;49.40
5972;DHT22;3012;49.944;8.454;2023-07-20T14:45:36;26.30;50.70
5972;DHT22;3012;49.944;8.454;2023-07-20T14:48:09;26.10;50.40
5972;DHT22;3012;49.944;8.454;2023-07-20T14:50:39;25.80;50.30
5972;DHT22;3012;49.944;8.454;2023-07-20T14:53:11;25.70;51.10
5972;DHT22;3012;49.944;8.454;2023-07-20T14:55:45;25.50;51.10
5972;DHT22;3012;49.944;8.454;2023-07-20T14:58:15;25.50;51.00
5972;DHT22;3012;49.944;8.454;2023-07-20T15:00:45;25.40;51.00
5972;DHT22;3012;49.944;8.454;2023-07-20T15:03:17;25.20;51.00
5972;DHT22;3012;49.944;8.454;2023-07-20T15:05:47;25.10;51.30
5972;DHT22;3012;49.944;8.454;2023-07-20T15:08:19;25.00;51.70
5972;DHT22;3012;49.944;8.454;2023-07-20T15:10:49;25.00;51.90
5972;DHT22;3012;49.944;8.454;2023-07-20T15:13:20;24.90;52.40
5972;DHT22;3012;49.944;8.454;2023-07-20T15:15:49;24.90;52.00
5972;DHT22;3012;49.944;8.454;2023-07-20T15:18:22;24.80;52.00
5972;DHT22;3012;49.944;8.454;2023-07-20T15:21:08;24.70;52.00
5972;DHT22;3012;49.944;8.454;2023-07-20T15:23:40;24.70;52.00
5972;DHT22;3012;49.944;8.454;2023-07-20T15:26:11;24.60;52.10
5972;DHT22;3012;49.944;8.454;2023-07-20T15:28:41;24.60;51.80
5972;DHT22;3012;49.944;8.454;2023-07-20T15:31:12;24.50;51.60
5972;DHT22;3012;49.944;8.454;2023-07-20T15:33:44;24.50;51.50
5972;DHT22;3012;49.944;8.454;2023-07-20T15:36:14;24.50;51.60
5972;DHT22;3012;49.944;8.454;2023-07-20T15:38:44;24.40;51.60
5972;DHT22;3012;49.944;8.454;2023-07-20T15:41:16;24.40;51.40
5972;DHT22;3012;49.944;8.454;2023-07-20T15:43:48;24.40;51.40
5972;DHT22;3012;49.944;8.454;2023-07-20T15:46:46;24.40;51.20
5972;DHT22;3012;49.944;8.454;2023-07-20T15:49:23;24.50;50.60
5972;DHT22;3012;49.944;8.454;2023-07-20T15:52:00;24.60;50.90
5972;DHT22;3012;49.944;8.454;2023-07-20T15:54:36;24.70;50.70
5972;DHT22;3012;49.944;8.454;2023-07-20T15:57:10;24.70;50.70
5972;DHT22;3012;49.944;8.454;2023-07-20T15:59:42;24.80;51.10
5972;DHT22;3012;49.944;8.454;2023-07-20T16:02:13;24.80;50.60
5972;DHT22;3012;49.944;8.454;2023-07-20T16:04:45;24.80;50.60
5972;DHT22;3012;49.944;8.454;2023-07-20T16:07:20;24.80;50.90
5972;DHT22;3012;49.944;8.454;2023-07-20T16:09:51;24.80;50.90
5972;DHT22;3012;49.944;8.454;2023-07-20T16:12:21;24.80;51.10
5972;DHT22;3012;49.944;8.454;2023-07-20T16:14:54;24.80;51.30
5972;DHT22;3012;49.944;8.454;2023-07-20T16:17:27;24.80;51.60
5972;DHT22;3012;49.944;8.454;2023-07-20T16:19:58;24.70;51.40
5972;DHT22;3012;49.944;8.454;2023-07-20T16:22:28;24.70;51.40
5972;DHT22;3012;49.944;8.454;2023-07-20T16:24:59;24.60;51.60
5972;DHT22;3012;49.944;8.454;2023-07-20T16:27:29;24.60;52.00
5972;DHT22;3012;49.944;8.454;2023-07-20T16:29:59;24.50;52.00
5972;DHT22;3012;49.944;8.454;2023-07-20T16:32:30;24.50;51.70
5972;DHT22;3012;49.944;8.454;2023-07-20T16:35:01;24.50;51.60
5972;DHT22;3012;49.944;8.454;2023-07-20T16:37:34;24.50;51.40
5972;DHT22;3012;49.944;8.454;2023-07-20T16:40:07;24.40;51.60